createdAt,value
2023-04-16T00:00:18.178Z,6.863426
2023-04-16T00:05:17.191Z,6.784722
2023-04-16T00:10:17.253Z,6.692130
2023-04-16T00:15:17.499Z,6.729167
2023-04-16T00:20:17.524Z,6.814815
2023-04-16T00:25:17.179Z,6.710648
2023-04-16T00:30:17.163Z,6.608796
2023-04-16T00:35:17.529Z,6.587963
2023-04-16T00:40:17.339Z,6.671296
2023-04-16T00:45:17.217Z,6.770833
2023-04-16T00:50:17.480Z,6.625000
2023-04-16T00:55:17.484Z,6.458333
2023-04-16T01:00:17.165Z,6.446759
2023-04-16T01:05:17.204Z,6.442130
2023-04-16T01:10:17.657Z,6.513889
2023-04-16T01:15:17.256Z,6.546296
2023-04-16T01:20:17.416Z,6.379630
2023-04-16T01:25:17.616Z,6.449074
2023-04-16T01:30:17.606Z,6.548611
2023-04-16T01:35:17.479Z,6.465278
2023-04-16T01:40:17.583Z,6.400000
2023-04-16T01:45:17.358Z,6.324444
2023-04-16T01:50:17.278Z,6.304444
2023-04-16T01:55:17.664Z,6.360000
2023-04-16T02:00:17.406Z,6.191111
2023-04-16T02:05:17.362Z,6.111111
2023-04-16T02:10:17.386Z,6.117778
2023-04-16T02:15:17.678Z,6.068889
2023-04-16T02:20:17.331Z,6.057778
2023-04-16T02:25:17.788Z,6.133333
2023-04-16T02:30:17.299Z,6.217778
2023-04-16T02:35:17.285Z,6.240000
2023-04-16T02:40:17.217Z,6.284444
2023-04-16T02:45:17.302Z,6.284444
2023-04-16T02:50:17.298Z,6.293333
2023-04-16T02:55:17.259Z,6.337778
2023-04-16T03:00:17.644Z,6.388889
2023-04-16T03:05:17.192Z,6.388889
2023-04-16T03:10:17.327Z,6.424444
2023-04-16T03:15:17.302Z,6.406667
2023-04-16T03:20:17.238Z,6.444444
2023-04-16T03:25:17.347Z,6.442222
2023-04-16T03:30:17.272Z,6.453333
2023-04-16T03:35:17.382Z,6.411111
2023-04-16T03:40:17.142Z,6.353333
2023-04-16T03:45:17.162Z,6.355556
2023-04-16T03:50:17.584Z,6.393333
2023-04-16T03:55:17.454Z,6.397778
2023-04-16T04:00:17.305Z,6.388889
2023-04-16T04:05:17.163Z,6.340000
2023-04-16T04:10:19.979Z,6.329060
2023-04-16T04:15:19.753Z,6.307870
2023-04-16T04:20:20.181Z,6.273148
2023-04-16T04:25:19.572Z,6.277778
2023-04-16T04:30:20.005Z,6.280093
2023-04-16T04:35:19.723Z,6.305556
2023-04-16T04:40:19.657Z,6.317130
2023-04-16T04:45:17.180Z,6.321759
2023-04-16T04:50:17.116Z,6.317130
2023-04-16T04:55:17.152Z,6.326389
2023-04-16T05:00:17.132Z,6.307870
2023-04-16T05:05:17.130Z,6.351852
2023-04-16T05:10:17.316Z,6.430556
2023-04-16T05:15:17.647Z,6.465278
2023-04-16T05:20:17.402Z,6.537778
2023-04-16T05:25:17.302Z,6.608796
2023-04-16T05:30:17.512Z,6.615741
2023-04-16T05:35:17.806Z,6.692982
2023-04-16T05:40:17.290Z,6.756944
2023-04-16T05:45:17.432Z,6.798611
2023-04-16T05:50:17.118Z,6.895833
2023-04-16T05:55:17.565Z,6.961111
2023-04-16T06:00:17.387Z,7.000000
2023-04-16T06:05:17.287Z,7.023148
2023-04-16T06:10:17.104Z,7.150794
2023-04-16T06:15:17.222Z,7.157407
2023-04-16T06:20:17.083Z,7.217593
2023-04-16T06:25:18.295Z,7.180556
2023-04-16T06:30:17.115Z,7.222222
2023-04-16T06:35:17.064Z,7.407407
2023-04-16T06:40:17.091Z,7.407407
2023-04-16T06:45:17.253Z,7.402778
2023-04-16T06:50:17.061Z,7.524444
2023-04-16T06:55:17.054Z,7.560185
2023-04-16T07:00:17.629Z,7.594907
2023-04-16T07:05:17.068Z,7.696759
2023-04-16T07:10:16.997Z,7.759259
2023-04-16T07:15:17.073Z,7.766204
2023-04-16T07:20:17.098Z,7.803241
2023-04-16T07:25:17.199Z,7.895833
2023-04-16T07:30:17.117Z,8.180556
2023-04-16T07:35:17.281Z,8.306667
2023-04-16T07:40:17.065Z,8.564815
2023-04-16T07:45:17.555Z,8.835648
2023-04-16T07:50:17.201Z,8.870370
2023-04-16T07:55:18.512Z,9.060000
2023-04-16T08:00:17.278Z,9.210648
2023-04-16T08:05:17.197Z,9.312500
2023-04-16T08:10:17.066Z,9.379630
2023-04-16T08:15:17.218Z,9.451389
2023-04-16T08:20:19.223Z,9.671296
2023-04-16T08:25:17.052Z,9.886667
2023-04-16T08:30:17.138Z,10.027778
2023-04-16T08:35:17.429Z,10.254630
2023-04-16T08:40:17.307Z,10.180556
2023-04-16T08:45:17.213Z,10.196759
2023-04-16T08:50:16.988Z,10.331019
2023-04-16T08:55:17.452Z,10.266204
2023-04-16T09:00:17.045Z,10.226852
2023-04-16T09:05:17.186Z,10.298611
2023-04-16T09:10:17.395Z,10.534722
2023-04-16T09:15:17.191Z,10.594907
2023-04-16T09:20:17.656Z,10.710648
2023-04-16T09:25:17.406Z,10.687500
2023-04-16T09:30:17.046Z,10.784722
2023-04-16T09:35:17.578Z,10.953704
2023-04-16T09:40:17.211Z,11.166667
2023-04-16T09:45:17.049Z,11.349537
2023-04-16T09:50:18.252Z,11.444444
2023-04-16T09:55:17.214Z,11.511574
2023-04-16T10:00:17.265Z,11.370370
2023-04-16T10:05:17.014Z,11.384259
2023-04-16T10:10:17.282Z,11.511574
2023-04-16T10:15:17.416Z,11.787037
2023-04-16T10:20:17.369Z,11.770833
2023-04-16T10:25:17.099Z,11.807870
2023-04-16T10:30:17.673Z,11.629630
2023-04-16T10:35:17.225Z,11.537037
2023-04-16T10:40:17.446Z,11.381944
2023-04-16T10:45:17.164Z,11.365741
2023-04-16T10:50:17.143Z,11.275463
2023-04-16T10:55:17.472Z,11.347222
2023-04-16T11:00:17.230Z,11.479167
2023-04-16T11:05:16.989Z,11.513228
2023-04-16T11:10:17.252Z,11.780093
2023-04-16T11:15:17.072Z,11.937500
2023-04-16T11:20:19.063Z,12.037037
2023-04-16T11:25:16.906Z,12.222222
2023-04-16T11:30:17.126Z,12.335648
2023-04-16T11:35:17.173Z,12.314815
2023-04-16T11:40:16.938Z,12.337963
2023-04-16T11:45:16.945Z,12.409722
2023-04-16T11:50:17.208Z,12.215278
2023-04-16T11:55:16.919Z,12.324074
2023-04-16T12:00:16.969Z,12.287037
2023-04-16T12:05:16.913Z,12.159722
2023-04-16T12:10:17.039Z,12.175926
2023-04-16T12:15:16.964Z,12.224537
2023-04-16T12:20:17.012Z,12.243056
2023-04-16T12:25:17.265Z,12.275463
2023-04-16T12:30:17.036Z,12.312500
2023-04-16T12:35:16.979Z,12.303241
2023-04-16T12:40:17.240Z,12.319444
2023-04-16T12:45:17.403Z,12.375556
2023-04-16T12:50:17.165Z,12.310185
2023-04-16T12:55:17.308Z,12.277778
2023-04-16T13:00:17.124Z,12.142222
2023-04-16T13:05:16.897Z,11.953704
2023-04-16T13:10:17.377Z,11.831019
2023-04-16T13:15:17.026Z,11.722222
2023-04-16T13:20:17.255Z,11.800926
2023-04-16T13:25:16.967Z,11.738426
2023-04-16T13:30:17.100Z,11.645833
2023-04-16T13:35:16.951Z,11.701389
2023-04-16T13:40:17.180Z,11.768519
2023-04-16T13:45:17.014Z,11.736111
2023-04-16T13:50:17.006Z,11.694444
2023-04-16T13:55:16.872Z,11.712963
2023-04-16T14:00:17.031Z,11.891204
2023-04-16T14:05:16.979Z,11.937500
2023-04-16T14:10:16.912Z,11.946759
2023-04-16T14:15:16.995Z,12.004630
2023-04-16T14:20:16.937Z,11.947222
2023-04-16T14:25:17.041Z,11.652778
2023-04-16T14:30:17.067Z,11.488426
2023-04-16T14:35:16.858Z,11.317130
2023-04-16T14:40:16.885Z,11.201389
2023-04-16T14:45:17.134Z,11.134259
2023-04-16T14:50:17.196Z,11.171296
2023-04-16T14:55:16.990Z,11.173611
2023-04-16T15:00:17.317Z,11.226852
2023-04-16T15:05:17.186Z,11.136574
2023-04-16T15:10:17.087Z,11.002315
2023-04-16T15:15:17.538Z,10.881944
2023-04-16T15:20:16.958Z,10.793981
2023-04-16T15:25:16.918Z,10.692130
2023-04-16T15:30:17.386Z,10.587963
2023-04-16T15:35:17.400Z,10.520833
2023-04-16T15:40:16.992Z,10.571759
2023-04-16T15:45:16.923Z,10.636574
2023-04-16T15:50:17.394Z,10.506667
2023-04-16T15:55:17.075Z,10.395833
2023-04-16T16:00:17.389Z,10.324074
2023-04-16T16:05:17.415Z,10.291667
2023-04-16T16:10:17.114Z,10.324074
2023-04-16T16:15:17.461Z,10.263889
2023-04-16T16:20:17.264Z,10.178241
2023-04-16T16:25:16.918Z,10.178241
2023-04-16T16:30:16.986Z,10.215278
2023-04-16T16:35:17.141Z,10.168981
2023-04-16T16:40:16.875Z,10.094907
2023-04-16T16:45:16.948Z,10.055556
2023-04-16T16:50:16.980Z,10.055556
2023-04-16T16:55:18.661Z,10.087963
2023-04-16T17:00:17.061Z,10.101852
2023-04-16T17:05:16.971Z,10.069444
2023-04-16T17:10:16.935Z,10.078704
2023-04-16T17:15:19.118Z,10.062500
2023-04-16T17:20:16.854Z,10.039352
2023-04-16T17:25:17.361Z,10.002315
2023-04-16T17:30:17.093Z,9.979167
2023-04-16T17:35:16.864Z,9.928241
2023-04-16T17:40:17.045Z,9.840278
2023-04-16T17:45:16.895Z,9.756944
2023-04-16T17:50:16.907Z,9.706019
2023-04-16T17:55:17.155Z,9.664352
2023-04-16T18:00:16.969Z,9.636574
2023-04-16T18:05:17.213Z,9.597222
2023-04-16T18:10:16.901Z,9.567130
2023-04-16T18:15:17.195Z,9.555556
2023-04-16T18:20:16.905Z,9.555556
2023-04-16T18:25:17.094Z,9.553241
2023-04-16T18:30:23.003Z,9.548611
2023-04-16T18:35:16.981Z,9.546296
2023-04-16T18:40:17.167Z,9.539352
2023-04-16T18:45:21.657Z,9.506944
2023-04-16T18:50:16.866Z,9.493056
2023-04-16T18:55:17.159Z,9.495370
2023-04-16T19:00:16.854Z,9.488426
2023-04-16T19:05:16.890Z,9.476852
2023-04-16T19:10:17.644Z,9.451389
2023-04-16T19:15:16.892Z,9.418981
2023-04-16T19:20:16.926Z,9.384259
2023-04-16T19:25:16.964Z,9.377315
2023-04-16T19:30:17.117Z,9.342593
2023-04-16T19:35:16.926Z,9.321759
2023-04-16T19:40:16.815Z,9.289352
2023-04-16T19:45:16.847Z,9.275463
2023-04-16T19:50:17.094Z,9.236111
2023-04-16T19:55:17.156Z,9.217593
2023-04-16T20:00:16.924Z,9.208889
2023-04-16T20:05:17.164Z,9.180556
2023-04-16T20:10:17.126Z,9.166667
2023-04-16T20:15:17.284Z,9.128889
2023-04-16T20:20:17.360Z,9.087963
2023-04-16T20:25:16.922Z,9.055556
2023-04-16T20:30:16.863Z,9.004630
2023-04-16T20:35:16.979Z,8.988426
2023-04-16T20:40:16.920Z,8.946759
2023-04-16T20:45:16.863Z,8.939815
2023-04-16T20:50:17.178Z,8.928241
2023-04-16T20:55:16.889Z,8.888889
2023-04-16T21:00:16.894Z,8.870370
2023-04-16T21:05:16.936Z,8.844907
2023-04-16T21:10:16.991Z,8.835648
2023-04-16T21:15:16.848Z,8.833333
2023-04-16T21:20:16.804Z,8.828704
2023-04-16T21:25:17.180Z,8.791667
2023-04-16T21:30:16.949Z,8.766204
2023-04-16T21:35:17.055Z,8.687500
2023-04-16T21:40:16.968Z,8.664444
2023-04-16T21:45:17.028Z,8.611111
2023-04-16T21:50:17.029Z,8.562500
2023-04-16T21:55:16.967Z,8.527778
2023-04-16T22:00:18.217Z,8.500000
2023-04-16T22:05:17.001Z,8.497685
2023-04-16T22:10:16.966Z,8.481481
2023-04-16T22:15:16.834Z,8.479167
2023-04-16T22:20:16.828Z,8.465278
2023-04-16T22:25:17.188Z,8.469907
2023-04-16T22:30:16.845Z,8.469907
2023-04-16T22:35:16.837Z,8.446759
2023-04-16T22:40:16.934Z,8.437500
2023-04-16T22:45:16.851Z,8.388889
2023-04-16T22:50:17.118Z,8.347222
2023-04-16T22:55:16.842Z,8.305556
2023-04-16T23:00:17.025Z,8.280093
2023-04-16T23:05:16.784Z,8.252315
2023-04-16T23:10:16.866Z,8.233796
2023-04-16T23:15:16.860Z,8.222222
2023-04-16T23:20:16.962Z,8.219907
2023-04-16T23:25:16.913Z,8.220000
2023-04-16T23:30:17.133Z,8.222222
2023-04-16T23:35:17.082Z,8.215278
2023-04-16T23:40:17.000Z,8.175926
2023-04-16T23:45:16.997Z,8.162037
2023-04-16T23:50:16.878Z,8.125000
2023-04-16T23:55:17.162Z,8.090278
